Time;durP1;ratioP1;P1;durP2;ratioP2;P2;SDS_P1;SDS_P2;PMS_P1;PMS_P2;Temp;Humidity;BMP_temperature;BMP_pressure;BME280_temperature;BME280_humidity;BME280_pressure;Samples;Min_cycle;Max_cycle;Signal;HPM_P1;HPM_P2
2022/02/10 00:13:45;;;;;;;5.07;4.50;;;;;;;;;;7329972;19;154266;-15
2022/02/10 00:19:31;;;;;;;5.43;4.63;;;;;;;;;;7326671;19;162031;-15
2022/02/10 00:22:11;;;;;;;7.93;4.25;;;;;;;;;;7333344;19;162326;-15
2022/02/10 00:35:53;;;;;;;16.83;6.20;;;;;;;;;;7329457;19;153973;-12
2022/02/10 08:56:55;;;;;;;6.00;5.45;;;;;;;;;;7367747;19;162150;-15
2022/02/10 08:59:55;;;;;;;8.80;5.65;;;;;;;;;;7365114;19;162641;-15
2022/02/10 09:05:25;;;;;;;7.05;5.35;;;;;;;;;;7363915;19;153607;-15
2022/02/10 09:14:00;;;;;;;;;;;;;;;;;;7365291;19;153940;-15
2022/02/10 09:19:40;;;;;;;;;;;;;;;;;;7364037;19;161986;-14
2022/02/10 09:55:46;;;;;;;5.70;4.70;;;;;;;;;;7333842;19;162391;-15
2022/02/10 09:58:35;;;;;;;7.97;5.03;;;;;;;;;;7335747;19;153940;-16
2022/02/10 10:01:18;;;;;;;5.20;4.70;;;;;;;;;;7337262;19;156101;-15
2022/02/10 10:04:06;;;;;;;5.75;4.43;;;;;;;;;;7333583;19;161883;-14
2022/02/10 10:09:42;;;;;;;5.75;5.03;;;;;;;;;;7330423;19;153992;-14
2022/02/10 10:15:21;;;;;;;5.10;4.45;;;;;;;;;;7334800;19;162056;-15
2022/02/10 10:18:29;;;;;;;5.63;5.13;;;;;;;;;;7334594;19;162558;-15
2022/02/10 10:21:21;;;;;;;5.93;4.40;;;;;;;;;;7335572;19;153973;-15
2022/02/10 10:49:58;;;;;;;4.45;4.05;;;;;;;;;;7331296;19;162020;-15
2022/02/10 10:52:48;;;;;;;4.85;3.85;;;;;;;;;;7332039;19;162385;-15
2022/02/10 10:55:37;;;;;;;6.10;4.57;;;;;;;;;;7333962;19;153936;-15
2022/02/10 10:58:15;;;;;;;4.47;4.07;;;;;;;;;;7334749;19;153882;-15
2022/02/10 11:04:32;;;;;;;4.40;4.00;;;;;;;;;;7330258;19;162476;-15
2022/02/10 11:38:21;;;;;;;4.25;3.80;;;;;;;;;;7333802;19;163126;-15
2022/02/10 11:41:38;;;;;;;4.22;3.83;;;;;;;;;;7331184;19;153972;-16
2022/02/10 14:09:26;;;;;;;4.93;3.97;;;;;;;;;;7333518;19;153945;-14
2022/02/10 14:14:46;;;;;;;;;;;;;;;;;;7335085;19;161861;-15
2022/02/10 14:17:28;;;;;;;7.68;4.65;;;;;;;;;;7335344;19;162550;-17
2022/02/10 14:20:13;;;;;;;5.30;4.10;;;;;;;;;;7336113;19;154214;-14
2022/02/10 14:22:53;;;;;;;4.93;4.03;;;;;;;;;;7334991;19;153984;-15
2022/02/10 14:28:18;;;;;;;;;;;;;;;;;;7332800;19;162557;-15
2022/02/10 14:30:50;;;;;;;5.20;4.10;;;;;;;;;;7331918;19;154101;-14
2022/02/10 14:33:27;;;;;;;8.85;4.45;;;;;;;;;;7331370;19;153513;-16
2022/02/10 14:36:06;;;;;;;8.32;3.95;;;;;;;;;;7331024;19;161875;-15
2022/02/10 14:39:12;;;;;;;6.07;4.25;;;;;;;;;;7324688;19;162654;-14
2022/02/10 15:18:32;;;;;;;4.38;3.83;;;;;;;;;;7329014;19;153244;-14
2022/02/10 15:46:34;;;;;;;4.38;3.78;;;;;;;;;;7328899;19;162367;-14
2022/02/10 15:52:13;;;;;;;5.75;4.13;;;;;;;;;;7328828;19;153794;-14
2022/02/10 16:11:25;;;;;;;5.63;4.05;;;;;;;;;;7328969;19;154039;-15
2022/02/10 16:16:56;;;;;;;4.20;3.80;;;;;;;;;;7329231;19;162062;-15
2022/02/10 16:19:30;;;;;;;5.43;4.20;;;;;;;;;;7327719;19;162514;-15
2022/02/10 16:22:09;;;;;;;6.63;4.13;;;;;;;;;;7329442;19;154012;-15
2022/02/10 16:24:49;;;;;;;5.82;4.22;;;;;;;;;;7328164;19;153573;-15
2022/02/10 16:27:25;;;;;;;6.43;4.63;;;;;;;;;;7329050;19;162337;-15
2022/02/10 16:30:01;;;;;;;4.70;4.13;;;;;;;;;;7328773;19;162623;-15
2022/02/10 16:32:35;;;;;;;5.07;4.03;;;;;;;;;;7327258;19;154045;-15
2022/02/10 16:35:28;;;;;;;5.35;4.18;;;;;;;;;;7328924;19;153224;-15
2022/02/10 16:38:20;;;;;;;6.07;3.85;;;;;;;;;;7327751;19;161564;-14
2022/02/10 16:41:11;;;;;;;6.65;4.30;;;;;;;;;;7328372;19;162468;-14
2022/02/10 16:44:02;;;;;;;5.78;3.92;;;;;;;;;;7328611;19;153976;-15
2022/02/10 16:46:35;;;;;;;5.22;4.20;;;;;;;;;;7326557;19;153854;-15
2022/02/10 16:49:29;;;;;;;7.97;4.47;;;;;;;;;;7328181;19;162156;-14
2022/02/10 16:52:24;;;;;;;6.72;4.00;;;;;;;;;;7333811;19;162394;-15
2022/02/10 16:55:24;;;;;;;4.68;3.95;;;;;;;;;;7335284;19;154013;-15
2022/02/10 16:58:27;;;;;;;6.72;4.00;;;;;;;;;;7335227;19;153686;-15
2022/02/10 17:04:57;;;;;;;6.65;4.32;;;;;;;;;;7331747;19;162522;-15
2022/02/10 17:20:01;;;;;;;6.97;4.38;;;;;;;;;;7334729;19;154212;-16
2022/02/10 17:25:24;;;;;;;7.97;4.95;;;;;;;;;;7334079;19;161871;-15
2022/02/10 17:28:00;;;;;;;7.45;4.15;;;;;;;;;;7333861;19;162451;-15
2022/02/10 17:33:53;;;;;;;5.30;4.80;;;;;;;;;;7330045;19;153657;-15
2022/02/10 17:36:34;;;;;;;6.28;4.30;;;;;;;;;;7333226;19;162009;-15
2022/02/10 17:42:18;;;;;;;7.15;4.47;;;;;;;;;;7333685;19;154141;-17
2022/02/10 17:45:07;;;;;;;5.65;4.05;;;;;;;;;;7333231;19;153678;-14
2022/02/10 17:53:21;;;;;;;5.97;4.47;;;;;;;;;;7331928;19;153982;-13
2022/02/10 17:55:53;;;;;;;9.32;4.00;;;;;;;;;;7332919;19;153669;-14
2022/02/10 17:58:25;;;;;;;4.80;3.88;;;;;;;;;;7331760;19;162039;-14
2022/02/10 18:00:57;;;;;;;11.45;4.88;;;;;;;;;;7331869;19;162326;-13
2022/02/10 18:03:29;;;;;;;7.28;4.28;;;;;;;;;;7333201;19;153977;-14
2022/02/10 18:06:20;;;;;;;8.45;4.93;;;;;;;;;;7332560;19;153526;-14
2022/02/10 18:12:36;;;;;;;9.00;5.25;;;;;;;;;;7331134;19;162843;-14
2022/02/10 18:14:57;;;;;;;11.45;5.57;;;;;;;;;;7332789;19;154133;-14
2022/02/10 18:17:42;;;;;;;8.27;4.80;;;;;;;;;;7332688;19;153554;-14
2022/02/10 18:20:18;;;;;;;8.85;5.18;;;;;;;;;;7332199;19;161763;-15
2022/02/10 18:23:06;;;;;;;9.45;4.82;;;;;;;;;;7331578;19;162451;-13
2022/02/10 19:07:38;;;;;;;9.90;5.88;;;;;;;;;;7330995;19;162569;-15
2022/02/10 19:10:13;;;;;;;8.73;5.95;;;;;;;;;;7331412;19;154007;-16
2022/02/10 19:12:47;;;;;;;9.07;5.72;;;;;;;;;;7328247;19;153641;-15
2022/02/10 19:15:23;;;;;;;9.73;6.32;;;;;;;;;;7330730;19;161818;-15
2022/02/10 19:17:55;;;;;;;10.75;5.82;;;;;;;;;;7330741;19;162678;-14
2022/02/10 19:20:26;;;;;;;12.53;7.20;;;;;;;;;;7331146;19;153981;-15
2022/02/10 19:22:58;;;;;;;10.48;5.53;;;;;;;;;;7330508;19;153932;-14
2022/02/10 19:25:29;;;;;;;8.88;6.30;;;;;;;;;;7330456;19;161841;-15
2022/02/10 19:28:00;;;;;;;9.40;5.88;;;;;;;;;;7330271;19;162661;-14
2022/02/10 19:30:37;;;;;;;11.27;6.00;;;;;;;;;;7329975;19;154015;-21
2022/02/10 19:33:14;;;;;;;9.63;5.68;;;;;;;;;;7329832;19;154635;-14
2022/02/10 19:35:48;;;;;;;12.77;6.88;;;;;;;;;;7330174;19;162125;-15
2022/02/10 19:38:23;;;;;;;15.85;7.32;;;;;;;;;;7329194;19;162367;-16
2022/02/10 19:40:55;;;;;;;12.52;6.47;;;;;;;;;;7330591;19;154005;-16
2022/02/10 19:43:27;;;;;;;9.45;6.60;;;;;;;;;;7330527;19;153492;-13
2022/02/10 19:46:01;;;;;;;9.73;6.63;;;;;;;;;;7329943;19;161970;-13
2022/02/10 19:48:32;;;;;;;13.80;8.02;;;;;;;;;;7330245;19;163186;-14
2022/02/10 19:51:04;;;;;;;14.15;8.02;;;;;;;;;;7333252;19;154102;-14
2022/02/10 19:53:36;;;;;;;13.32;7.80;;;;;;;;;;7332351;19;153535;-13
2022/02/10 19:56:07;;;;;;;16.58;7.18;;;;;;;;;;7332281;19;162004;-14
2022/02/10 19:58:39;;;;;;;15.18;7.22;;;;;;;;;;7332384;19;162357;-13
2022/02/10 20:01:13;;;;;;;15.00;9.27;;;;;;;;;;7332260;19;153952;-13
2022/02/10 20:03:45;;;;;;;15.48;8.38;;;;;;;;;;7331845;19;153598;-13
2022/02/10 20:06:16;;;;;;;16.58;8.68;;;;;;;;;;7332209;19;163389;-14
2022/02/10 20:08:48;;;;;;;13.73;6.97;;;;;;;;;;7330530;19;162511;-13
2022/02/10 20:11:20;;;;;;;13.18;7.47;;;;;;;;;;7331806;19;154149;-17
2022/02/10 20:13:51;;;;;;;9.98;6.15;;;;;;;;;;7326078;19;153715;-14
2022/02/10 20:16:25;;;;;;;9.00;6.28;;;;;;;;;;7324355;19;162258;-14
2022/02/10 20:18:57;;;;;;;10.52;6.43;;;;;;;;;;7323113;19;162772;-15
2022/02/10 20:21:29;;;;;;;17.48;7.03;;;;;;;;;;7328976;19;154117;-14
2022/02/10 20:24:01;;;;;;;11.17;6.63;;;;;;;;;;7328498;19;153548;-14
2022/02/10 20:26:32;;;;;;;13.93;5.85;;;;;;;;;;7328113;19;161915;-15
2022/02/10 20:29:04;;;;;;;11.18;5.95;;;;;;;;;;7330696;19;162648;-14
2022/02/10 20:31:39;;;;;;;10.63;5.90;;;;;;;;;;7332283;19;153943;-14
2022/02/10 20:34:13;;;;;;;23.58;17.40;;;;;;;;;;7329853;19;153733;-15
2022/02/10 20:36:45;;;;;;;50.47;37.78;;;;;;;;;;7331793;19;162042;-15
2022/02/10 20:39:23;;;;;;;76.95;60.58;;;;;;;;;;7328446;19;162408;-14
2022/02/10 20:42:02;;;;;;;77.10;58.88;;;;;;;;;;7330511;19;154030;-15
2022/02/10 20:44:34;;;;;;;78.55;65.00;;;;;;;;;;7330803;19;153704;-15
2022/02/10 20:47:09;;;;;;;70.27;55.07;;;;;;;;;;7328729;19;161785;-15
2022/02/10 20:49:40;;;;;;;76.10;60.55;;;;;;;;;;7327406;19;162357;-15
2022/02/10 20:52:11;;;;;;;71.63;56.95;;;;;;;;;;7327823;19;154134;-15
2022/02/10 20:54:43;;;;;;;87.03;71.25;;;;;;;;;;7330056;19;153653;-15
2022/02/10 20:57:14;;;;;;;80.22;64.68;;;;;;;;;;7330921;19;161973;-16
2022/02/10 20:59:47;;;;;;;74.97;61.03;;;;;;;;;;7330990;19;162468;-15
2022/02/10 21:02:30;;;;;;;70.28;56.33;;;;;;;;;;7331199;19;154014;-15
2022/02/10 21:05:20;;;;;;;75.80;62.07;;;;;;;;;;7329504;19;153705;-14
2022/02/10 21:08:00;;;;;;;81.70;65.00;;;;;;;;;;7330966;19;162022;-14
2022/02/10 21:10:33;;;;;;;75.43;61.65;;;;;;;;;;7329686;19;162469;-14
2022/02/10 21:13:05;;;;;;;72.28;56.20;;;;;;;;;;7327654;19;153914;-16
2022/02/10 21:15:42;;;;;;;71.38;57.42;;;;;;;;;;7325639;19;153928;-16
2022/02/10 21:18:18;;;;;;;121.78;78.10;;;;;;;;;;7327378;19;161787;-21
2022/02/10 21:20:55;;;;;;;96.50;67.25;;;;;;;;;;7331433;19;162526;-15
2022/02/10 21:23:32;;;;;;;85.63;61.38;;;;;;;;;;7327208;19;154134;-15
2022/02/10 21:26:04;;;;;;;86.35;64.10;;;;;;;;;;7328164;19;153706;-14
2022/02/10 21:28:39;;;;;;;84.57;60.92;;;;;;;;;;7329955;19;161923;-15
2022/02/10 21:31:10;;;;;;;70.68;56.58;;;;;;;;;;7329753;19;162380;-14
2022/02/10 21:33:54;;;;;;;75.53;55.58;;;;;;;;;;7329471;19;154169;-15
2022/02/10 21:39:25;;;;;;;70.22;54.20;;;;;;;;;;7335451;19;161997;-15
2022/02/10 22:10:00;;;;;;;63.00;47.78;;;;;;;;;;7336062;19;153776;-14
2022/02/10 22:20:55;;;;;;;66.05;48.30;;;;;;;;;;7334147;19;155123;-14
2022/02/10 22:23:31;;;;;;;66.10;46.85;;;;;;;;;;7329920;19;161875;-14
2022/02/10 22:26:05;;;;;;;64.50;50.78;;;;;;;;;;7335412;19;162670;-14
2022/02/10 22:28:47;;;;;;;63.78;48.30;;;;;;;;;;7335638;19;153948;-14
2022/02/10 22:31:28;;;;;;;62.65;47.53;;;;;;;;;;7334150;19;153611;-14
2022/02/10 22:34:17;;;;;;;61.30;46.30;;;;;;;;;;7335062;19;161992;-15
2022/02/10 22:36:54;;;;;;;62.10;45.92;;;;;;;;;;7332869;19;162622;-15
2022/02/10 22:39:33;;;;;;;60.60;45.70;;;;;;;;;;7332611;19;153977;-14
2022/02/10 22:42:06;;;;;;;60.80;48.75;;;;;;;;;;7333828;19;153623;-14
2022/02/10 22:44:38;;;;;;;64.47;45.10;;;;;;;;;;7334303;19;161736;-14
2022/02/10 22:47:10;;;;;;;64.50;48.33;;;;;;;;;;7326658;19;162351;-14
2022/02/10 22:49:41;;;;;;;60.47;45.95;;;;;;;;;;7333143;19;153978;-15
2022/02/10 22:52:13;;;;;;;60.72;46.80;;;;;;;;;;7328978;19;153723;-15
2022/02/10 22:54:47;;;;;;;54.28;42.72;;;;;;;;;;7331823;19;161850;-14
2022/02/10 22:57:18;;;;;;;56.05;43.60;;;;;;;;;;7328024;19;162377;-14
2022/02/10 22:59:49;;;;;;;57.17;45.00;;;;;;;;;;7326851;19;154086;-14
2022/02/10 23:02:21;;;;;;;58.45;45.53;;;;;;;;;;7330419;19;154096;-14
2022/02/10 23:04:52;;;;;;;55.65;44.30;;;;;;;;;;7332054;19;161879;-15
2022/02/10 23:07:23;;;;;;;54.35;44.40;;;;;;;;;;7327940;19;162298;-15
2022/02/10 23:10:31;;;;;;;57.25;42.28;;;;;;;;;;7328901;19;154116;-14
2022/02/10 23:12:56;;;;;;;54.70;43.85;;;;;;;;;;7329760;19;154016;-15
2022/02/10 23:15:28;;;;;;;54.58;40.20;;;;;;;;;;7324399;19;163298;-14
2022/02/10 23:17:59;;;;;;;54.67;43.67;;;;;;;;;;7327459;19;162797;-15
2022/02/10 23:20:30;;;;;;;53.20;41.13;;;;;;;;;;7330951;19;152758;-14
2022/02/10 23:23:03;;;;;;;48.67;41.05;;;;;;;;;;7326982;19;153672;-14
2022/02/10 23:25:37;;;;;;;51.92;39.78;;;;;;;;;;7325541;19;161718;-14
2022/02/10 23:28:11;;;;;;;52.70;39.85;;;;;;;;;;7332144;19;162506;-14
2022/02/10 23:30:45;;;;;;;48.80;36.58;;;;;;;;;;7329031;19;154050;-14
2022/02/10 23:33:20;;;;;;;52.95;39.85;;;;;;;;;;7329195;19;153826;-14
2022/02/10 23:38:46;;;;;;;62.13;45.55;;;;;;;;;;7325145;19;162598;-16
2022/02/10 23:44:11;;;;;;;54.03;42.08;;;;;;;;;;7328784;19;153517;-15
2022/02/10 23:46:44;;;;;;;51.67;38.50;;;;;;;;;;7330888;19;162084;-15
2022/02/10 23:49:19;;;;;;;49.72;39.50;;;;;;;;;;7330342;19;162440;-16
2022/02/10 23:51:55;;;;;;;52.38;38.38;;;;;;;;;;7329486;19;153949;-15
2022/02/10 23:54:27;;;;;;;87.97;60.53;;;;;;;;;;7325763;19;154142;-16
2022/02/10 23:57:07;;;;;;;113.43;69.55;;;;;;;;;;7332072;19;161915;-15
